sensor_id;sensor_type;location;lat;lon;timestamp;pressure;altitude;pressure_sealevel;temperature;humidity
44297;BME280;51842;47.450;8.654;2023-05-11T00:02:07;95408.59;;;8.44;100.00
44297;BME280;51842;47.450;8.654;2023-05-11T00:04:33;95403.53;;;8.42;100.00
44297;BME280;51842;47.450;8.654;2023-05-11T00:06:59;95399.56;;;8.45;100.00
44297;BME280;51842;47.450;8.654;2023-05-11T00:09:24;95402.00;;;8.46;100.00
44297;BME280;51842;47.450;8.654;2023-05-11T00:11:51;95396.69;;;8.46;100.00
44297;BME280;51842;47.450;8.654;2023-05-11T00:14:17;95400.13;;;8.47;100.00
44297;BME280;51842;47.450;8.654;2023-05-11T00:16:43;95400.09;;;8.42;100.00
44297;BME280;51842;47.450;8.654;2023-05-11T00:19:09;95393.19;;;8.46;100.00
44297;BME280;51842;47.450;8.654;2023-05-11T00:21:35;95399.88;;;8.48;100.00
44297;BME280;51842;47.450;8.654;2023-05-11T00:24:01;95393.19;;;8.46;100.00
44297;BME280;51842;47.450;8.654;2023-05-11T00:26:26;95394.81;;;8.47;100.00
44297;BME280;51842;47.450;8.654;2023-05-11T00:28:52;95394.03;;;8.46;100.00
44297;BME280;51842;47.450;8.654;2023-05-11T00:31:18;95389.75;;;8.45;100.00
44297;BME280;51842;47.450;8.654;2023-05-11T00:33:44;95386.81;;;8.42;100.00
44297;BME280;51842;47.450;8.654;2023-05-11T00:36:09;95387.59;;;8.42;100.00
44297;BME280;51842;47.450;8.654;2023-05-11T00:38:35;95383.09;;;8.43;100.00
44297;BME280;51842;47.450;8.654;2023-05-11T00:41:06;95376.19;;;8.42;100.00
44297;BME280;51842;47.450;8.654;2023-05-11T00:43:33;95378.84;;;8.42;100.00
44297;BME280;51842;47.450;8.654;2023-05-11T00:45:59;95382.06;;;8.44;100.00
44297;BME280;51842;47.450;8.654;2023-05-11T00:48:26;95382.59;;;8.46;100.00
44297;BME280;51842;47.450;8.654;2023-05-11T00:50:53;95374.59;;;8.41;100.00
44297;BME280;51842;47.450;8.654;2023-05-11T00:53:19;95379.69;;;8.47;100.00
44297;BME280;51842;47.450;8.654;2023-05-11T00:55:45;95366.97;;;8.49;100.00
44297;BME280;51842;47.450;8.654;2023-05-11T00:58:11;95374.44;;;8.52;100.00
44297;BME280;51842;47.450;8.654;2023-05-11T01:00:37;95375.75;;;8.55;100.00
44297;BME280;51842;47.450;8.654;2023-05-11T01:03:04;95376.31;;;8.57;100.00
44297;BME280;51842;47.450;8.654;2023-05-11T01:09:12;95380.81;;;8.62;100.00
44297;BME280;51842;47.450;8.654;2023-05-11T01:14:57;95385.63;;;8.65;100.00
44297;BME280;51842;47.450;8.654;2023-05-11T01:18:00;95394.66;;;8.64;100.00
44297;BME280;51842;47.450;8.654;2023-05-11T01:20:29;95384.81;;;8.64;100.00
44297;BME280;51842;47.450;8.654;2023-05-11T01:26:15;95384.59;;;8.66;100.00
44297;BME280;51842;47.450;8.654;2023-05-11T01:31:41;95378.47;;;8.65;100.00
44297;BME280;51842;47.450;8.654;2023-05-11T01:34:24;95379.28;;;8.66;100.00
44297;BME280;51842;47.450;8.654;2023-05-11T01:37:11;95380.06;;;8.66;100.00
44297;BME280;51842;47.450;8.654;2023-05-11T01:39:57;95372.91;;;8.67;100.00
44297;BME280;51842;47.450;8.654;2023-05-11T01:42:31;95374.75;;;8.66;100.00
44297;BME280;51842;47.450;8.654;2023-05-11T01:44:59;95381.41;;;8.69;100.00
44297;BME280;51842;47.450;8.654;2023-05-11T01:47:29;95380.88;;;8.67;100.00
44297;BME280;51842;47.450;8.654;2023-05-11T01:49:57;95374.75;;;8.66;100.00
44297;BME280;51842;47.450;8.654;2023-05-11T01:52:28;95372.34;;;8.65;100.00
44297;BME280;51842;47.450;8.654;2023-05-11T01:54:57;95368.09;;;8.64;100.00
44297;BME280;51842;47.450;8.654;2023-05-11T01:57:27;95373.69;;;8.62;100.00
44297;BME280;51842;47.450;8.654;2023-05-11T01:59:56;95368.38;;;8.62;100.00
44297;BME280;51842;47.450;8.654;2023-05-11T02:02:24;95369.69;;;8.60;100.00
44297;BME280;51842;47.450;8.654;2023-05-11T02:04:53;95369.69;;;8.60;100.00
44297;BME280;51842;47.450;8.654;2023-05-11T02:07:21;95370.72;;;8.58;100.00
44297;BME280;51842;47.450;8.654;2023-05-11T02:09:49;95371.00;;;8.57;100.00
44297;BME280;51842;47.450;8.654;2023-05-11T02:12:18;95370.69;;;8.53;100.00
44297;BME280;51842;47.450;8.654;2023-05-11T02:14:46;95367.50;;;8.51;100.00
44297;BME280;51842;47.450;8.654;2023-05-11T02:17:15;95369.63;;;8.49;100.00
44297;BME280;51842;47.450;8.654;2023-05-11T02:19:44;95374.94;;;8.49;100.00
44297;BME280;51842;47.450;8.654;2023-05-11T02:22:12;95366.16;;;8.49;100.00
44297;BME280;51842;47.450;8.654;2023-05-11T02:24:39;95364.81;;;8.46;100.00
44297;BME280;51842;47.450;8.654;2023-05-11T02:27:06;95364.00;;;8.46;100.00
44297;BME280;51842;47.450;8.654;2023-05-11T02:29:31;95368.00;;;8.43;100.00
44297;BME280;51842;47.450;8.654;2023-05-11T02:32:17;95365.84;;;8.40;100.00
44297;BME280;51842;47.450;8.654;2023-05-11T02:34:55;95365.84;;;8.40;100.00
44297;BME280;51842;47.450;8.654;2023-05-11T02:37:24;95364.47;;;8.38;100.00
44297;BME280;51842;47.450;8.654;2023-05-11T02:40:01;95365.50;;;8.37;100.00
44297;BME280;51842;47.450;8.654;2023-05-11T02:42:29;95363.13;;;8.35;100.00
44297;BME280;51842;47.450;8.654;2023-05-11T02:45:05;95361.53;;;8.34;100.00
44297;BME280;51842;47.450;8.654;2023-05-11T02:47:38;95357.81;;;8.35;100.00
44297;BME280;51842;47.450;8.654;2023-05-11T02:50:07;95354.88;;;8.31;100.00
44297;BME280;51842;47.450;8.654;2023-05-11T02:52:43;95351.16;;;8.32;100.00
44297;BME280;51842;47.450;8.654;2023-05-11T02:55:12;95348.78;;;8.31;100.00
44297;BME280;51842;47.450;8.654;2023-05-11T02:57:39;95355.16;;;8.35;100.00
44297;BME280;51842;47.450;8.654;2023-05-11T03:00:06;95349.84;;;8.35;100.00
44297;BME280;51842;47.450;8.654;2023-05-11T03:02:33;95350.66;;;8.35;100.00
44297;BME280;51842;47.450;8.654;2023-05-11T03:04:58;95351.44;;;8.36;100.00
44297;BME280;51842;47.450;8.654;2023-05-11T03:07:24;95353.31;;;8.35;100.00
44297;BME280;51842;47.450;8.654;2023-05-11T03:09:51;95356.75;;;8.36;100.00
44297;BME280;51842;47.450;8.654;2023-05-11T03:12:18;95348.78;;;8.36;100.00
44297;BME280;51842;47.450;8.654;2023-05-11T03:14:47;95352.22;;;8.37;100.00
44297;BME280;51842;47.450;8.654;2023-05-11T03:17:15;95350.41;;;8.37;100.00
44297;BME280;51842;47.450;8.654;2023-05-11T03:19:42;95345.09;;;8.37;100.00
44297;BME280;51842;47.450;8.654;2023-05-11T03:22:09;95340.81;;;8.36;100.00
44297;BME280;51842;47.450;8.654;2023-05-11T03:24:37;95350.66;;;8.35;100.00
44297;BME280;51842;47.450;8.654;2023-05-11T03:27:05;95347.75;;;8.37;100.00
44297;BME280;51842;47.450;8.654;2023-05-11T03:29:33;95340.03;;;8.35;100.00
44297;BME280;51842;47.450;8.654;2023-05-11T03:32:03;95346.13;;;8.36;100.00
44297;BME280;51842;47.450;8.654;2023-05-11T03:34:29;95343.47;;;8.36;100.00
44297;BME280;51842;47.450;8.654;2023-05-11T03:36:57;95342.13;;;8.33;100.00
44297;BME280;51842;47.450;8.654;2023-05-11T03:39:28;95349.94;;;8.40;100.00
44297;BME280;51842;47.450;8.654;2023-05-11T03:41:55;95340.09;;;8.41;100.00
44297;BME280;51842;47.450;8.654;2023-05-11T03:44:23;95339.84;;;8.42;100.00
44297;BME280;51842;47.450;8.654;2023-05-11T03:46:52;95343.84;;;8.45;100.00
44297;BME280;51842;47.450;8.654;2023-05-11T03:49:19;95338.78;;;8.43;100.00
44297;BME280;51842;47.450;8.654;2023-05-11T03:51:46;95340.94;;;8.46;100.00
44297;BME280;51842;47.450;8.654;2023-05-11T03:54:13;95335.34;;;8.48;100.00
44297;BME280;51842;47.450;8.654;2023-05-11T03:56:39;95332.47;;;8.49;100.00
44297;BME280;51842;47.450;8.654;2023-05-11T03:59:06;95331.63;;;8.49;100.00
44297;BME280;51842;47.450;8.654;2023-05-11T04:01:32;95339.88;;;8.47;100.00
44297;BME280;51842;47.450;8.654;2023-05-11T04:03:58;95339.06;;;8.47;100.00
44297;BME280;51842;47.450;8.654;2023-05-11T04:06:24;95333.78;;;8.47;100.00
44297;BME280;51842;47.450;8.654;2023-05-11T04:08:50;95338.28;;;8.46;100.00
44297;BME280;51842;47.450;8.654;2023-05-11T04:11:15;95340.16;;;8.51;100.00
44297;BME280;51842;47.450;8.654;2023-05-11T04:13:41;95335.13;;;8.49;100.00
44297;BME280;51842;47.450;8.654;2023-05-11T04:16:07;95341.75;;;8.52;100.00
44297;BME280;51842;47.450;8.654;2023-05-11T04:18:33;95340.16;;;8.51;100.00
44297;BME280;51842;47.450;8.654;2023-05-11T04:20:59;95329.03;;;8.54;100.00
44297;BME280;51842;47.450;8.654;2023-05-11T04:23:25;95334.34;;;8.54;100.00
44297;BME280;51842;47.450;8.654;2023-05-11T04:25:55;95326.41;;;8.59;100.00
44297;BME280;51842;47.450;8.654;2023-05-11T04:28:22;95326.13;;;8.61;100.00
44297;BME280;51842;47.450;8.654;2023-05-11T04:30:53;95323.47;;;8.61;100.00
44297;BME280;51842;47.450;8.654;2023-05-11T04:33:20;95323.50;;;8.66;100.00
44297;BME280;51842;47.450;8.654;2023-05-11T04:35:45;95320.34;;;8.69;100.00
44297;BME280;51842;47.450;8.654;2023-05-11T04:38:12;95323.53;;;8.71;100.00
44297;BME280;51842;47.450;8.654;2023-05-11T04:40:39;95323.00;;;8.74;100.00
44297;BME280;51842;47.450;8.654;2023-05-11T04:43:05;95326.22;;;8.76;100.00
44297;BME280;51842;47.450;8.654;2023-05-11T04:45:31;95330.72;;;8.80;100.00
44297;BME280;51842;47.450;8.654;2023-05-11T04:47:56;95328.63;;;8.83;100.00
44297;BME280;51842;47.450;8.654;2023-05-11T04:50:22;95327.56;;;8.84;100.00
44297;BME280;51842;47.450;8.654;2023-05-11T04:52:48;95326.25;;;8.86;100.00
44297;BME280;51842;47.450;8.654;2023-05-11T04:55:13;95337.16;;;8.90;100.00
44297;BME280;51842;47.450;8.654;2023-05-11T04:57:39;95329.72;;;8.92;100.00
44297;BME280;51842;47.450;8.654;2023-05-11T05:00:06;95334.53;;;8.95;100.00
44297;BME280;51842;47.450;8.654;2023-05-11T05:02:33;95335.31;;;8.95;100.00
44297;BME280;51842;47.450;8.654;2023-05-11T05:04:59;95328.97;;;8.96;100.00
44297;BME280;51842;47.450;8.654;2023-05-11T05:07:26;95331.91;;;9.00;100.00
44297;BME280;51842;47.450;8.654;2023-05-11T05:09:52;95336.41;;;9.04;100.00
44297;BME280;51842;47.450;8.654;2023-05-11T05:12:17;95332.69;;;9.06;100.00
44297;BME280;51842;47.450;8.654;2023-05-11T05:14:43;95331.94;;;9.10;100.00
44297;BME280;51842;47.450;8.654;2023-05-11T05:17:09;95340.44;;;9.12;100.00
44297;BME280;51842;47.450;8.654;2023-05-11T05:19:35;95335.69;;;9.19;100.00
44297;BME280;51842;47.450;8.654;2023-05-11T05:22:00;95337.25;;;9.20;100.00
44297;BME280;51842;47.450;8.654;2023-05-11T05:24:26;95337.53;;;9.24;100.00
44297;BME280;51842;47.450;8.654;2023-05-11T05:26:52;95337.84;;;9.27;100.00
44297;BME280;51842;47.450;8.654;2023-05-11T05:29:17;95339.16;;;9.30;100.00
44297;BME280;51842;47.450;8.654;2023-05-11T05:31:43;95341.84;;;9.35;100.00
44297;BME280;51842;47.450;8.654;2023-05-11T05:34:09;95335.44;;;9.36;100.00
44297;BME280;51842;47.450;8.654;2023-05-11T05:36:35;95339.44;;;9.39;100.00
44297;BME280;51842;47.450;8.654;2023-05-11T05:39:00;95339.72;;;9.42;100.00
44297;BME280;51842;47.450;8.654;2023-05-11T05:41:28;95343.47;;;9.46;100.00
44297;BME280;51842;47.450;8.654;2023-05-11T05:43:54;95336.03;;;9.54;100.00
44297;BME280;51842;47.450;8.654;2023-05-11T05:46:20;95342.16;;;9.59;100.00
44297;BME280;51842;47.450;8.654;2023-05-11T05:48:45;95343.75;;;9.60;100.00
44297;BME280;51842;47.450;8.654;2023-05-11T05:51:11;95341.91;;;9.66;100.00
44297;BME280;51842;47.450;8.654;2023-05-11T05:53:37;95341.38;;;9.69;100.00
44297;BME280;51842;47.450;8.654;2023-05-11T05:56:03;95348.81;;;9.72;100.00
44297;BME280;51842;47.450;8.654;2023-05-11T05:58:29;95335.78;;;9.70;100.00
44297;BME280;51842;47.450;8.654;2023-05-11T06:00:55;95342.19;;;9.75;100.00
44297;BME280;51842;47.450;8.654;2023-05-11T06:03:20;95338.97;;;9.78;100.00
44297;BME280;51842;47.450;8.654;2023-05-11T06:05:46;95339.78;;;9.83;100.00
44297;BME280;51842;47.450;8.654;2023-05-11T06:08:12;95340.31;;;9.85;100.00
44297;BME280;51842;47.450;8.654;2023-05-11T06:10:38;95344.03;;;9.89;100.00
44297;BME280;51842;47.450;8.654;2023-05-11T06:13:03;95341.66;;;9.88;100.00
44297;BME280;51842;47.450;8.654;2023-05-11T06:15:29;95338.72;;;9.89;100.00
44297;BME280;51842;47.450;8.654;2023-05-11T06:17:55;95344.28;;;9.93;100.00
44297;BME280;51842;47.450;8.654;2023-05-11T06:20:21;95335.00;;;9.90;100.00
44297;BME280;51842;47.450;8.654;2023-05-11T06:22:47;95346.44;;;9.91;100.00
44297;BME280;51842;47.450;8.654;2023-05-11T06:25:13;95338.19;;;9.92;100.00
44297;BME280;51842;47.450;8.654;2023-05-11T06:27:39;95339.25;;;9.91;100.00
44297;BME280;51842;47.450;8.654;2023-05-11T06:30:06;95340.59;;;9.94;100.00
44297;BME280;51842;47.450;8.654;2023-05-11T06:32:32;95340.84;;;9.98;100.00
44297;BME280;51842;47.450;8.654;2023-05-11T06:34:59;95335.50;;;10.03;100.00
44297;BME280;51842;47.450;8.654;2023-05-11T06:37:28;95332.59;;;9.99;100.00
44297;BME280;51842;47.450;8.654;2023-05-11T06:39:53;95329.66;;;10.01;100.00
44297;BME280;51842;47.450;8.654;2023-05-11T06:42:20;95329.94;;;10.04;100.00
44297;BME280;51842;47.450;8.654;2023-05-11T06:44:48;95329.91;;;10.14;100.00
44297;BME280;51842;47.450;8.654;2023-05-11T06:47:13;95329.69;;;10.26;100.00
44297;BME280;51842;47.450;8.654;2023-05-11T06:49:41;95324.34;;;10.47;100.00
44297;BME280;51842;47.450;8.654;2023-05-11T06:52:07;95332.81;;;10.59;100.00
44297;BME280;51842;47.450;8.654;2023-05-11T06:54:34;95329.88;;;10.65;100.00
44297;BME280;51842;47.450;8.654;2023-05-11T06:57:00;95321.81;;;10.81;100.00
44297;BME280;51842;47.450;8.654;2023-05-11T06:59:28;95325.22;;;11.02;100.00
44297;BME280;51842;47.450;8.654;2023-05-11T07:01:54;95320.59;;;11.18;100.00
44297;BME280;51842;47.450;8.654;2023-05-11T07:04:20;95318.63;;;11.39;100.00
44297;BME280;51842;47.450;8.654;2023-05-11T07:06:46;95319.16;;;11.41;99.52
44297;BME280;51842;47.450;8.654;2023-05-11T07:09:12;95330.00;;;11.54;99.15
44297;BME280;51842;47.450;8.654;2023-05-11T07:11:38;95328.13;;;11.55;95.36
44297;BME280;51842;47.450;8.654;2023-05-11T07:14:03;95327.00;;;11.66;95.72
44297;BME280;51842;47.450;8.654;2023-05-11T07:16:30;95329.03;;;11.79;95.50
44297;BME280;51842;47.450;8.654;2023-05-11T07:18:56;95328.53;;;11.77;93.59
44297;BME280;51842;47.450;8.654;2023-05-11T07:21:21;95324.75;;;11.89;95.31
44297;BME280;51842;47.450;8.654;2023-05-11T07:23:47;95326.09;;;11.86;94.31
44297;BME280;51842;47.450;8.654;2023-05-11T07:26:13;95324.94;;;11.97;92.97
44297;BME280;51842;47.450;8.654;2023-05-11T07:28:39;95326.22;;;12.05;92.38
44297;BME280;51842;47.450;8.654;2023-05-11T07:31:05;95334.69;;;12.12;92.57
44297;BME280;51842;47.450;8.654;2023-05-11T07:33:31;95334.63;;;12.22;91.76
44297;BME280;51842;47.450;8.654;2023-05-11T07:35:59;95331.19;;;12.17;89.96
44297;BME280;51842;47.450;8.654;2023-05-11T07:38:24;95330.31;;;12.26;90.57
44297;BME280;51842;47.450;8.654;2023-05-11T07:40:50;95335.22;;;12.14;87.05
44297;BME280;51842;47.450;8.654;2023-05-11T07:43:16;95325.56;;;12.18;90.00
44297;BME280;51842;47.450;8.654;2023-05-11T07:45:42;95333.16;;;12.35;91.81
44297;BME280;51842;47.450;8.654;2023-05-11T07:48:07;95334.63;;;12.52;91.47
44297;BME280;51842;47.450;8.654;2023-05-11T07:50:33;95328.03;;;12.68;88.87
44297;BME280;51842;47.450;8.654;2023-05-11T07:52:59;95330.59;;;12.78;87.25
44297;BME280;51842;47.450;8.654;2023-05-11T07:55:25;95326.06;;;12.79;88.79
44297;BME280;51842;47.450;8.654;2023-05-11T07:57:52;95326.78;;;12.84;86.20
44297;BME280;51842;47.450;8.654;2023-05-11T08:00:19;95333.31;;;12.97;88.57
44297;BME280;51842;47.450;8.654;2023-05-11T08:02:45;95325.69;;;13.09;86.87
44297;BME280;51842;47.450;8.654;2023-05-11T08:05:11;95329.78;;;13.02;83.72
44297;BME280;51842;47.450;8.654;2023-05-11T08:07:37;95331.69;;;13.01;84.43
44297;BME280;51842;47.450;8.654;2023-05-11T08:10:03;95321.28;;;13.18;84.73
44297;BME280;51842;47.450;8.654;2023-05-11T08:12:29;95324.81;;;13.38;85.79
44297;BME280;51842;47.450;8.654;2023-05-11T08:14:54;95320.69;;;13.27;82.01
44297;BME280;51842;47.450;8.654;2023-05-11T08:17:20;95326.78;;;13.51;82.92
44297;BME280;51842;47.450;8.654;2023-05-11T08:19:46;95312.03;;;13.73;83.08
44297;BME280;51842;47.450;8.654;2023-05-11T08:22:12;95318.81;;;13.65;78.22
44297;BME280;51842;47.450;8.654;2023-05-11T08:24:37;95316.66;;;13.86;78.12
44297;BME280;51842;47.450;8.654;2023-05-11T08:27:04;95314.72;;;14.05;76.41
44297;BME280;51842;47.450;8.654;2023-05-11T08:29:30;95316.06;;;14.22;73.97
44297;BME280;51842;47.450;8.654;2023-05-11T08:31:56;95314.19;;;14.69;75.55
44297;BME280;51842;47.450;8.654;2023-05-11T08:34:23;95307.94;;;15.15;72.70
44297;BME280;51842;47.450;8.654;2023-05-11T08:36:49;95308.66;;;15.57;70.39
44297;BME280;51842;47.450;8.654;2023-05-11T08:39:15;95302.97;;;15.72;66.51
44297;BME280;51842;47.450;8.654;2023-05-11T08:41:42;95304.22;;;16.11;66.98
44297;BME280;51842;47.450;8.654;2023-05-11T08:44:09;95308.38;;;16.48;66.78
44297;BME280;51842;47.450;8.654;2023-05-11T08:46:39;95309.75;;;16.68;65.65
44297;BME280;51842;47.450;8.654;2023-05-11T08:49:07;95304.47;;;16.85;62.69
44297;BME280;51842;47.450;8.654;2023-05-11T08:51:34;95299.25;;;16.89;63.26
44297;BME280;51842;47.450;8.654;2023-05-11T08:53:59;95296.97;;;16.42;63.20
44297;BME280;51842;47.450;8.654;2023-05-11T08:56:25;95284.28;;;16.65;59.52
44297;BME280;51842;47.450;8.654;2023-05-11T08:58:54;95296.06;;;16.78;60.72
44297;BME280;51842;47.450;8.654;2023-05-11T09:01:27;95285.22;;;16.61;60.85
44297;BME280;51842;47.450;8.654;2023-05-11T09:03:54;95293.84;;;16.80;60.59
44297;BME280;51842;47.450;8.654;2023-05-11T09:06:25;95286.56;;;16.18;61.26
44297;BME280;51842;47.450;8.654;2023-05-11T09:08:52;95287.66;;;16.17;62.72
44297;BME280;51842;47.450;8.654;2023-05-11T09:11:18;95283.09;;;15.95;65.75
44297;BME280;51842;47.450;8.654;2023-05-11T09:13:45;95280.09;;;15.97;63.77
44297;BME280;51842;47.450;8.654;2023-05-11T09:16:10;95286.19;;;16.11;64.78
44297;BME280;51842;47.450;8.654;2023-05-11T09:18:50;95281.66;;;15.98;62.99
44297;BME280;51842;47.450;8.654;2023-05-11T09:21:16;95277.66;;;15.87;63.35
44297;BME280;51842;47.450;8.654;2023-05-11T09:23:43;95277.53;;;16.14;63.84
44297;BME280;51842;47.450;8.654;2023-05-11T09:26:22;95277.94;;;16.30;63.31
44297;BME280;51842;47.450;8.654;2023-05-11T09:28:56;95273.19;;;16.27;61.39
44297;BME280;51842;47.450;8.654;2023-05-11T09:31:43;95269.28;;;16.11;61.10
44297;BME280;51842;47.450;8.654;2023-05-11T09:36:37;95270.13;;;16.51;63.14
44297;BME280;51842;47.450;8.654;2023-05-11T09:39:03;95265.34;;;16.48;61.23
44297;BME280;51842;47.450;8.654;2023-05-11T09:41:30;95264.00;;;16.59;61.39
44297;BME280;51842;47.450;8.654;2023-05-11T09:46:42;95271.44;;;16.94;60.67
44297;BME280;51842;47.450;8.654;2023-05-11T09:49:10;95262.75;;;17.05;61.39
44297;BME280;51842;47.450;8.654;2023-05-11T09:51:39;95255.16;;;16.99;59.95
44297;BME280;51842;47.450;8.654;2023-05-11T09:54:21;95257.22;;;17.02;58.68
44297;BME280;51842;47.450;8.654;2023-05-11T09:56:50;95259.81;;;16.76;57.40
44297;BME280;51842;47.450;8.654;2023-05-11T09:59:38;95248.94;;;16.90;58.65
44297;BME280;51842;47.450;8.654;2023-05-11T10:02:28;95252.25;;;16.47;57.48
44297;BME280;51842;47.450;8.654;2023-05-11T10:04:59;95246.31;;;16.27;57.66
44297;BME280;51842;47.450;8.654;2023-05-11T10:07:34;95245.06;;;16.02;60.81
44297;BME280;51842;47.450;8.654;2023-05-11T10:10:08;95255.53;;;15.45;62.97
44297;BME280;51842;47.450;8.654;2023-05-11T10:12:36;95253.00;;;15.12;62.45
44297;BME280;51842;47.450;8.654;2023-05-11T10:15:07;95253.72;;;14.90;62.93
44297;BME280;51842;47.450;8.654;2023-05-11T10:17:35;95255.22;;;14.83;66.94
44297;BME280;51842;47.450;8.654;2023-05-11T10:20:03;95260.69;;;14.77;71.65
44297;BME280;51842;47.450;8.654;2023-05-11T10:22:30;95261.16;;;14.66;70.30
44297;BME280;51842;47.450;8.654;2023-05-11T10:24:58;95259.88;;;14.63;72.93
44297;BME280;51842;47.450;8.654;2023-05-11T10:27:25;95258.03;;;14.31;74.65
44297;BME280;51842;47.450;8.654;2023-05-11T10:29:51;95259.59;;;14.18;78.97
44297;BME280;51842;47.450;8.654;2023-05-11T10:32:19;95255.94;;;14.14;76.40
44297;BME280;51842;47.450;8.654;2023-05-11T10:34:47;95258.84;;;13.66;78.89
44297;BME280;51842;47.450;8.654;2023-05-11T10:37:15;95253.38;;;13.19;79.03
44297;BME280;51842;47.450;8.654;2023-05-11T10:39:44;95257.22;;;12.89;83.41
44297;BME280;51842;47.450;8.654;2023-05-11T10:46:03;95248.13;;;13.09;84.51
44297;BME280;51842;47.450;8.654;2023-05-11T10:54:47;95253.94;;;12.73;79.61
44297;BME280;51842;47.450;8.654;2023-05-11T11:03:37;95245.72;;;12.70;81.81
44297;BME280;51842;47.450;8.654;2023-05-11T11:06:03;95253.16;;;12.49;78.41
44297;BME280;51842;47.450;8.654;2023-05-11T11:09:00;95247.63;;;12.64;78.64
44297;BME280;51842;47.450;8.654;2023-05-11T11:11:41;95256.66;;;12.68;80.11
44297;BME280;51842;47.450;8.654;2023-05-11T11:14:12;95255.13;;;12.62;75.50
44297;BME280;51842;47.450;8.654;2023-05-11T11:16:38;95263.72;;;12.59;77.72
44297;BME280;51842;47.450;8.654;2023-05-11T11:21:56;95258.38;;;12.59;76.11
44297;BME280;51842;47.450;8.654;2023-05-11T11:27:04;95255.56;;;12.50;78.64
44297;BME280;51842;47.450;8.654;2023-05-11T11:29:37;95258.22;;;12.50;82.07
44297;BME280;51842;47.450;8.654;2023-05-11T11:34:49;95241.06;;;12.57;86.14
44297;BME280;51842;47.450;8.654;2023-05-11T11:37:17;95251.78;;;12.27;87.23
44297;BME280;51842;47.450;8.654;2023-05-11T11:42:13;95247.63;;;11.87;92.12
44297;BME280;51842;47.450;8.654;2023-05-11T11:44:42;95247.91;;;11.80;92.38
44297;BME280;51842;47.450;8.654;2023-05-11T11:47:19;95247.00;;;11.95;92.93
44297;BME280;51842;47.450;8.654;2023-05-11T11:49:52;95253.88;;;12.07;92.93
44297;BME280;51842;47.450;8.654;2023-05-11T11:54:54;95247.28;;;11.20;91.21
44297;BME280;51842;47.450;8.654;2023-05-11T12:00:04;95249.94;;;11.25;93.26
44297;BME280;51842;47.450;8.654;2023-05-11T12:02:32;95247.84;;;11.12;94.51
44297;BME280;51842;47.450;8.654;2023-05-11T12:05:14;95247.81;;;11.22;96.51
44297;BME280;51842;47.450;8.654;2023-05-11T12:07:49;95251.34;;;11.52;97.31
44297;BME280;51842;47.450;8.654;2023-05-11T12:10:19;95254.44;;;11.64;96.96
44297;BME280;51842;47.450;8.654;2023-05-11T12:12:50;95244.75;;;11.39;94.44
44297;BME280;51842;47.450;8.654;2023-05-11T12:15:29;95250.56;;;11.46;93.89
44297;BME280;51842;47.450;8.654;2023-05-11T12:17:57;95251.81;;;11.59;96.78
44297;BME280;51842;47.450;8.654;2023-05-11T12:20:23;95254.31;;;11.85;96.32
44297;BME280;51842;47.450;8.654;2023-05-11T12:22:50;95255.03;;;11.95;96.09
44297;BME280;51842;47.450;8.654;2023-05-11T12:25:17;95252.47;;;12.09;95.95
44297;BME280;51842;47.450;8.654;2023-05-11T12:30:29;95252.44;;;12.14;95.08
44297;BME280;51842;47.450;8.654;2023-05-11T12:32:56;95254.25;;;12.19;96.17
44297;BME280;51842;47.450;8.654;2023-05-11T12:35:31;95255.97;;;12.34;92.93
44297;BME280;51842;47.450;8.654;2023-05-11T12:38:00;95259.63;;;12.43;88.86
44297;BME280;51842;47.450;8.654;2023-05-11T12:40:30;95245.66;;;12.51;87.35
44297;BME280;51842;47.450;8.654;2023-05-11T12:42:58;95243.16;;;12.36;87.50
44297;BME280;51842;47.450;8.654;2023-05-11T12:45:26;95249.69;;;12.48;90.15
44297;BME280;51842;47.450;8.654;2023-05-11T12:47:54;95243.88;;;12.65;92.70
44297;BME280;51842;47.450;8.654;2023-05-11T12:50:21;95235.09;;;12.84;87.25
44297;BME280;51842;47.450;8.654;2023-05-11T12:52:47;95234.31;;;12.83;85.92
44297;BME280;51842;47.450;8.654;2023-05-11T12:55:29;95238.47;;;13.13;86.97
44297;BME280;51842;47.450;8.654;2023-05-11T12:58:15;95228.72;;;13.23;83.87
44297;BME280;51842;47.450;8.654;2023-05-11T13:00:56;95235.47;;;13.39;82.44
44297;BME280;51842;47.450;8.654;2023-05-11T13:03:28;95227.31;;;13.63;80.30
44297;BME280;51842;47.450;8.654;2023-05-11T13:06:08;95227.16;;;13.73;85.46
44297;BME280;51842;47.450;8.654;2023-05-11T13:08:44;95227.78;;;13.84;84.89
44297;BME280;51842;47.450;8.654;2023-05-11T13:11:25;95227.66;;;14.08;81.93
44297;BME280;51842;47.450;8.654;2023-05-11T13:13:54;95222.03;;;14.37;76.20
44297;BME280;51842;47.450;8.654;2023-05-11T13:16:27;95216.31;;;14.57;82.20
44297;BME280;51842;47.450;8.654;2023-05-11T13:19:02;95219.66;;;14.63;75.68
44297;BME280;51842;47.450;8.654;2023-05-11T13:21:29;95210.13;;;14.85;72.53
44297;BME280;51842;47.450;8.654;2023-05-11T13:23:55;95208.59;;;15.06;77.06
44297;BME280;51842;47.450;8.654;2023-05-11T13:26:27;95208.34;;;15.30;78.17
44297;BME280;51842;47.450;8.654;2023-05-11T13:28:53;95205.59;;;15.44;72.08
44297;BME280;51842;47.450;8.654;2023-05-11T13:31:19;95205.25;;;15.59;70.76
44297;BME280;51842;47.450;8.654;2023-05-11T13:33:49;95204.91;;;15.75;68.04
44297;BME280;51842;47.450;8.654;2023-05-11T13:36:16;95196.91;;;15.83;67.90
44297;BME280;51842;47.450;8.654;2023-05-11T13:38:42;95207.34;;;15.85;72.60
44297;BME280;51842;47.450;8.654;2023-05-11T13:41:09;95202.84;;;15.71;68.55
44297;BME280;51842;47.450;8.654;2023-05-11T13:43:35;95202.34;;;15.69;68.16
44297;BME280;51842;47.450;8.654;2023-05-11T13:46:01;95196.41;;;15.81;68.93
44297;BME280;51842;47.450;8.654;2023-05-11T13:48:31;95198.31;;;16.12;66.66
44297;BME280;51842;47.450;8.654;2023-05-11T13:50:57;95203.97;;;16.33;66.91
44297;BME280;51842;47.450;8.654;2023-05-11T13:53:23;95206.16;;;16.31;64.50
44297;BME280;51842;47.450;8.654;2023-05-11T13:55:49;95207.28;;;16.30;69.93
44297;BME280;51842;47.450;8.654;2023-05-11T13:58:15;95206.34;;;16.34;63.68
44297;BME280;51842;47.450;8.654;2023-05-11T14:00:42;95198.34;;;16.52;63.81